sensor_id;sensor_type;location;lat;lon;timestamp;P1;durP1;ratioP1;P2;durP2;ratioP2
62693;SDS011;48759;52.544;13.418;2023-11-18T00:01:23;9.03;;;7.37;;
62693;SDS011;48759;52.544;13.418;2023-11-18T00:03:51;8.83;;;6.83;;
62693;SDS011;48759;52.544;13.418;2023-11-18T00:06:18;11.03;;;6.90;;
62693;SDS011;48759;52.544;13.418;2023-11-18T00:08:45;8.17;;;7.10;;
62693;SDS011;48759;52.544;13.418;2023-11-18T00:11:11;8.30;;;7.07;;
62693;SDS011;48759;52.544;13.418;2023-11-18T00:13:38;9.47;;;7.40;;
62693;SDS011;48759;52.544;13.418;2023-11-18T00:16:07;9.33;;;7.40;;
62693;SDS011;48759;52.544;13.418;2023-11-18T00:18:37;7.40;;;6.60;;
62693;SDS011;48759;52.544;13.418;2023-11-18T00:21:06;16.97;;;7.10;;
62693;SDS011;48759;52.544;13.418;2023-11-18T00:23:33;8.50;;;7.10;;
62693;SDS011;48759;52.544;13.418;2023-11-18T00:25:59;9.10;;;6.30;;
62693;SDS011;48759;52.544;13.418;2023-11-18T00:28:27;8.70;;;7.00;;
62693;SDS011;48759;52.544;13.418;2023-11-18T00:30:53;9.27;;;6.97;;
62693;SDS011;48759;52.544;13.418;2023-11-18T00:33:20;8.13;;;6.67;;
62693;SDS011;48759;52.544;13.418;2023-11-18T00:35:47;11.20;;;7.40;;
62693;SDS011;48759;52.544;13.418;2023-11-18T00:38:15;7.57;;;6.67;;
62693;SDS011;48759;52.544;13.418;2023-11-18T00:40:42;10.97;;;6.80;;
62693;SDS011;48759;52.544;13.418;2023-11-18T00:43:09;8.73;;;7.27;;
62693;SDS011;48759;52.544;13.418;2023-11-18T00:45:36;9.23;;;7.00;;
62693;SDS011;48759;52.544;13.418;2023-11-18T00:48:03;9.00;;;6.10;;
62693;SDS011;48759;52.544;13.418;2023-11-18T00:50:30;7.23;;;6.53;;
62693;SDS011;48759;52.544;13.418;2023-11-18T00:52:58;9.37;;;6.73;;
62693;SDS011;48759;52.544;13.418;2023-11-18T00:55:26;9.90;;;6.83;;
62693;SDS011;48759;52.544;13.418;2023-11-18T00:57:53;9.13;;;6.43;;
62693;SDS011;48759;52.544;13.418;2023-11-18T01:00:19;8.43;;;6.50;;
62693;SDS011;48759;52.544;13.418;2023-11-18T01:02:47;12.10;;;6.50;;
62693;SDS011;48759;52.544;13.418;2023-11-18T01:05:14;8.83;;;7.33;;
62693;SDS011;48759;52.544;13.418;2023-11-18T01:07:41;11.53;;;6.03;;
62693;SDS011;48759;52.544;13.418;2023-11-18T01:10:09;7.53;;;6.70;;
62693;SDS011;48759;52.544;13.418;2023-11-18T01:12:38;12.00;;;6.93;;
62693;SDS011;48759;52.544;13.418;2023-11-18T01:15:05;10.40;;;6.87;;
62693;SDS011;48759;52.544;13.418;2023-11-18T01:17:32;7.47;;;6.40;;
62693;SDS011;48759;52.544;13.418;2023-11-18T01:19:59;7.10;;;5.90;;
62693;SDS011;48759;52.544;13.418;2023-11-18T01:22:26;8.70;;;6.97;;
62693;SDS011;48759;52.544;13.418;2023-11-18T01:24:52;9.53;;;8.13;;
62693;SDS011;48759;52.544;13.418;2023-11-18T01:27:19;10.27;;;6.73;;
62693;SDS011;48759;52.544;13.418;2023-11-18T01:29:49;8.43;;;6.97;;
62693;SDS011;48759;52.544;13.418;2023-11-18T01:32:15;7.80;;;7.00;;
62693;SDS011;48759;52.544;13.418;2023-11-18T01:34:44;7.63;;;6.83;;
62693;SDS011;48759;52.544;13.418;2023-11-18T01:37:15;10.77;;;7.10;;
62693;SDS011;48759;52.544;13.418;2023-11-18T01:39:42;7.60;;;6.50;;
62693;SDS011;48759;52.544;13.418;2023-11-18T01:42:08;9.00;;;6.40;;
62693;SDS011;48759;52.544;13.418;2023-11-18T01:44:36;7.20;;;6.50;;
62693;SDS011;48759;52.544;13.418;2023-11-18T01:47:05;7.87;;;6.20;;
62693;SDS011;48759;52.544;13.418;2023-11-18T01:49:35;7.63;;;6.23;;
62693;SDS011;48759;52.544;13.418;2023-11-18T01:52:05;9.00;;;6.40;;
62693;SDS011;48759;52.544;13.418;2023-11-18T01:54:32;8.60;;;6.57;;
62693;SDS011;48759;52.544;13.418;2023-11-18T01:57:00;9.90;;;6.70;;
62693;SDS011;48759;52.544;13.418;2023-11-18T01:59:30;8.00;;;6.67;;
62693;SDS011;48759;52.544;13.418;2023-11-18T02:01:58;6.50;;;5.80;;
62693;SDS011;48759;52.544;13.418;2023-11-18T02:04:28;9.93;;;6.50;;
62693;SDS011;48759;52.544;13.418;2023-11-18T02:06:55;12.37;;;6.47;;
62693;SDS011;48759;52.544;13.418;2023-11-18T02:09:23;8.10;;;7.03;;
62693;SDS011;48759;52.544;13.418;2023-11-18T02:11:54;8.47;;;6.70;;
62693;SDS011;48759;52.544;13.418;2023-11-18T02:14:27;7.33;;;6.40;;
62693;SDS011;48759;52.544;13.418;2023-11-18T02:16:57;7.20;;;5.90;;
62693;SDS011;48759;52.544;13.418;2023-11-18T02:19:28;10.40;;;7.00;;
62693;SDS011;48759;52.544;13.418;2023-11-18T02:21:56;8.20;;;7.30;;
62693;SDS011;48759;52.544;13.418;2023-11-18T02:24:26;7.27;;;6.50;;
62693;SDS011;48759;52.544;13.418;2023-11-18T02:26:57;8.43;;;7.20;;
62693;SDS011;48759;52.544;13.418;2023-11-18T02:29:25;7.80;;;6.43;;
62693;SDS011;48759;52.544;13.418;2023-11-18T02:31:56;6.70;;;6.00;;
62693;SDS011;48759;52.544;13.418;2023-11-18T02:34:27;8.23;;;7.13;;
62693;SDS011;48759;52.544;13.418;2023-11-18T02:36:57;7.40;;;6.43;;
62693;SDS011;48759;52.544;13.418;2023-11-18T02:39:29;10.27;;;8.33;;
62693;SDS011;48759;52.544;13.418;2023-11-18T02:42:05;10.57;;;7.03;;
62693;SDS011;48759;52.544;13.418;2023-11-18T02:44:34;7.93;;;7.13;;
62693;SDS011;48759;52.544;13.418;2023-11-18T02:47:03;8.43;;;6.93;;
62693;SDS011;48759;52.544;13.418;2023-11-18T02:49:31;9.20;;;7.33;;
62693;SDS011;48759;52.544;13.418;2023-11-18T02:51:58;9.23;;;6.77;;
62693;SDS011;48759;52.544;13.418;2023-11-18T02:54:25;9.50;;;7.30;;
62693;SDS011;48759;52.544;13.418;2023-11-18T02:56:51;9.80;;;7.33;;
62693;SDS011;48759;52.544;13.418;2023-11-18T02:59:20;8.13;;;6.77;;
62693;SDS011;48759;52.544;13.418;2023-11-18T03:01:46;8.23;;;6.93;;
62693;SDS011;48759;52.544;13.418;2023-11-18T03:04:13;7.90;;;6.80;;
62693;SDS011;48759;52.544;13.418;2023-11-18T03:06:40;8.93;;;6.97;;
62693;SDS011;48759;52.544;13.418;2023-11-18T03:09:07;8.33;;;6.90;;
62693;SDS011;48759;52.544;13.418;2023-11-18T03:11:35;8.50;;;6.90;;
62693;SDS011;48759;52.544;13.418;2023-11-18T03:14:01;13.80;;;7.00;;
62693;SDS011;48759;52.544;13.418;2023-11-18T03:16:31;8.63;;;6.47;;
62693;SDS011;48759;52.544;13.418;2023-11-18T03:18:58;7.93;;;6.37;;
62693;SDS011;48759;52.544;13.418;2023-11-18T03:21:26;9.10;;;7.07;;
62693;SDS011;48759;52.544;13.418;2023-11-18T03:23:53;11.00;;;6.90;;
62693;SDS011;48759;52.544;13.418;2023-11-18T03:26:19;9.83;;;6.50;;
62693;SDS011;48759;52.544;13.418;2023-11-18T03:28:46;8.50;;;6.90;;
62693;SDS011;48759;52.544;13.418;2023-11-18T03:31:13;12.93;;;7.27;;
62693;SDS011;48759;52.544;13.418;2023-11-18T03:33:42;9.30;;;6.90;;
62693;SDS011;48759;52.544;13.418;2023-11-18T03:36:09;10.00;;;8.00;;
62693;SDS011;48759;52.544;13.418;2023-11-18T03:38:37;12.27;;;9.17;;
62693;SDS011;48759;52.544;13.418;2023-11-18T03:41:04;11.00;;;7.03;;
62693;SDS011;48759;52.544;13.418;2023-11-18T03:43:33;8.43;;;6.50;;
62693;SDS011;48759;52.544;13.418;2023-11-18T03:46:00;10.20;;;7.10;;
62693;SDS011;48759;52.544;13.418;2023-11-18T03:48:26;8.40;;;6.03;;
62693;SDS011;48759;52.544;13.418;2023-11-18T03:50:54;7.03;;;5.83;;
62693;SDS011;48759;52.544;13.418;2023-11-18T03:53:21;7.23;;;5.90;;
62693;SDS011;48759;52.544;13.418;2023-11-18T03:55:47;6.30;;;5.17;;
62693;SDS011;48759;52.544;13.418;2023-11-18T03:58:16;7.70;;;6.90;;
62693;SDS011;48759;52.544;13.418;2023-11-18T04:00:43;8.80;;;5.90;;
62693;SDS011;48759;52.544;13.418;2023-11-18T04:03:10;6.20;;;5.40;;
62693;SDS011;48759;52.544;13.418;2023-11-18T04:05:37;8.50;;;5.50;;
62693;SDS011;48759;52.544;13.418;2023-11-18T04:08:05;8.57;;;5.27;;
62693;SDS011;48759;52.544;13.418;2023-11-18T04:10:32;7.40;;;6.10;;
62693;SDS011;48759;52.544;13.418;2023-11-18T04:12:59;6.93;;;5.40;;
62693;SDS011;48759;52.544;13.418;2023-11-18T04:15:26;9.23;;;5.93;;
62693;SDS011;48759;52.544;13.418;2023-11-18T04:17:53;7.20;;;6.03;;
62693;SDS011;48759;52.544;13.418;2023-11-18T04:20:20;9.53;;;6.40;;
62693;SDS011;48759;52.544;13.418;2023-11-18T04:22:47;7.77;;;5.90;;
62693;SDS011;48759;52.544;13.418;2023-11-18T04:25:15;7.53;;;6.17;;
62693;SDS011;48759;52.544;13.418;2023-11-18T04:27:41;8.17;;;6.20;;
62693;SDS011;48759;52.544;13.418;2023-11-18T04:30:08;8.00;;;6.20;;
62693;SDS011;48759;52.544;13.418;2023-11-18T04:32:36;12.73;;;6.63;;
62693;SDS011;48759;52.544;13.418;2023-11-18T04:35:02;7.80;;;6.40;;
62693;SDS011;48759;52.544;13.418;2023-11-18T04:37:33;9.47;;;6.30;;
62693;SDS011;48759;52.544;13.418;2023-11-18T04:40:00;9.83;;;6.87;;
62693;SDS011;48759;52.544;13.418;2023-11-18T04:42:28;9.23;;;7.00;;
62693;SDS011;48759;52.544;13.418;2023-11-18T04:44:55;8.30;;;6.63;;
62693;SDS011;48759;52.544;13.418;2023-11-18T04:47:22;8.20;;;6.57;;
62693;SDS011;48759;52.544;13.418;2023-11-18T04:49:50;10.40;;;6.40;;
62693;SDS011;48759;52.544;13.418;2023-11-18T04:52:16;7.80;;;6.00;;
62693;SDS011;48759;52.544;13.418;2023-11-18T04:54:43;9.00;;;7.20;;
62693;SDS011;48759;52.544;13.418;2023-11-18T04:57:13;7.77;;;6.37;;
62693;SDS011;48759;52.544;13.418;2023-11-18T04:59:41;9.90;;;7.20;;
62693;SDS011;48759;52.544;13.418;2023-11-18T05:02:08;8.37;;;7.07;;
62693;SDS011;48759;52.544;13.418;2023-11-18T05:04:34;8.70;;;7.13;;
62693;SDS011;48759;52.544;13.418;2023-11-18T05:07:02;11.47;;;6.97;;
62693;SDS011;48759;52.544;13.418;2023-11-18T05:09:29;9.00;;;7.10;;
62693;SDS011;48759;52.544;13.418;2023-11-18T05:11:57;14.17;;;7.30;;
62693;SDS011;48759;52.544;13.418;2023-11-18T05:14:24;9.87;;;6.80;;
62693;SDS011;48759;52.544;13.418;2023-11-18T05:16:52;11.33;;;7.83;;
62693;SDS011;48759;52.544;13.418;2023-11-18T05:19:19;10.93;;;7.50;;
62693;SDS011;48759;52.544;13.418;2023-11-18T05:21:49;8.40;;;6.70;;
62693;SDS011;48759;52.544;13.418;2023-11-18T05:24:16;7.70;;;6.60;;
62693;SDS011;48759;52.544;13.418;2023-11-18T05:26:43;9.27;;;7.40;;
62693;SDS011;48759;52.544;13.418;2023-11-18T05:29:09;8.60;;;6.80;;
62693;SDS011;48759;52.544;13.418;2023-11-18T05:31:41;11.73;;;7.63;;
62693;SDS011;48759;52.544;13.418;2023-11-18T05:34:09;9.20;;;6.67;;
62693;SDS011;48759;52.544;13.418;2023-11-18T05:36:37;10.70;;;7.50;;
62693;SDS011;48759;52.544;13.418;2023-11-18T05:39:05;10.23;;;7.70;;
62693;SDS011;48759;52.544;13.418;2023-11-18T05:41:32;11.40;;;7.47;;
62693;SDS011;48759;52.544;13.418;2023-11-18T05:44:00;10.80;;;9.10;;
62693;SDS011;48759;52.544;13.418;2023-11-18T05:46:26;9.70;;;6.53;;
62693;SDS011;48759;52.544;13.418;2023-11-18T05:48:55;12.10;;;8.07;;
62693;SDS011;48759;52.544;13.418;2023-11-18T05:51:24;9.17;;;7.50;;
62693;SDS011;48759;52.544;13.418;2023-11-18T05:53:52;10.33;;;7.00;;
62693;SDS011;48759;52.544;13.418;2023-11-18T05:56:21;10.00;;;7.73;;
62693;SDS011;48759;52.544;13.418;2023-11-18T05:58:48;9.63;;;7.30;;
62693;SDS011;48759;52.544;13.418;2023-11-18T06:01:15;13.37;;;8.40;;
62693;SDS011;48759;52.544;13.418;2023-11-18T06:03:43;9.20;;;7.70;;
62693;SDS011;48759;52.544;13.418;2023-11-18T06:06:11;9.40;;;7.10;;
62693;SDS011;48759;52.544;13.418;2023-11-18T06:08:42;9.33;;;6.70;;
62693;SDS011;48759;52.544;13.418;2023-11-18T06:11:09;12.40;;;8.50;;
62693;SDS011;48759;52.544;13.418;2023-11-18T06:13:39;11.43;;;8.73;;
62693;SDS011;48759;52.544;13.418;2023-11-18T06:16:14;9.63;;;7.57;;
62693;SDS011;48759;52.544;13.418;2023-11-18T06:18:42;12.90;;;7.60;;
62693;SDS011;48759;52.544;13.418;2023-11-18T06:21:11;10.70;;;8.20;;
62693;SDS011;48759;52.544;13.418;2023-11-18T06:23:39;11.47;;;8.40;;
62693;SDS011;48759;52.544;13.418;2023-11-18T06:26:07;11.30;;;8.57;;
62693;SDS011;48759;52.544;13.418;2023-11-18T06:28:36;12.30;;;8.90;;
62693;SDS011;48759;52.544;13.418;2023-11-18T06:31:04;12.03;;;9.13;;
62693;SDS011;48759;52.544;13.418;2023-11-18T06:33:35;11.33;;;7.90;;
62693;SDS011;48759;52.544;13.418;2023-11-18T06:36:03;11.53;;;8.47;;
62693;SDS011;48759;52.544;13.418;2023-11-18T06:38:30;11.93;;;8.60;;
62693;SDS011;48759;52.544;13.418;2023-11-18T06:40:59;12.33;;;8.80;;
62693;SDS011;48759;52.544;13.418;2023-11-18T06:43:29;13.20;;;8.50;;
62693;SDS011;48759;52.544;13.418;2023-11-18T06:46:07;13.73;;;8.83;;
62693;SDS011;48759;52.544;13.418;2023-11-18T06:48:35;13.57;;;8.90;;
62693;SDS011;48759;52.544;13.418;2023-11-18T06:51:02;13.57;;;9.80;;
62693;SDS011;48759;52.544;13.418;2023-11-18T06:53:30;12.57;;;8.50;;
62693;SDS011;48759;52.544;13.418;2023-11-18T06:55:56;15.77;;;9.80;;
62693;SDS011;48759;52.544;13.418;2023-11-18T06:58:23;14.60;;;9.57;;
62693;SDS011;48759;52.544;13.418;2023-11-18T07:00:51;12.87;;;9.40;;
62693;SDS011;48759;52.544;13.418;2023-11-18T07:03:18;11.73;;;8.20;;
62693;SDS011;48759;52.544;13.418;2023-11-18T07:05:44;10.67;;;8.23;;
62693;SDS011;48759;52.544;13.418;2023-11-18T07:08:11;26.47;;;9.50;;
62693;SDS011;48759;52.544;13.418;2023-11-18T07:10:40;11.20;;;8.80;;
62693;SDS011;48759;52.544;13.418;2023-11-18T07:13:07;17.40;;;10.70;;
62693;SDS011;48759;52.544;13.418;2023-11-18T07:15:33;12.63;;;8.83;;
62693;SDS011;48759;52.544;13.418;2023-11-18T07:18:02;12.57;;;8.80;;
62693;SDS011;48759;52.544;13.418;2023-11-18T07:20:29;13.70;;;9.67;;
62693;SDS011;48759;52.544;13.418;2023-11-18T07:22:55;12.73;;;9.10;;
62693;SDS011;48759;52.544;13.418;2023-11-18T07:25:22;14.93;;;9.87;;
62693;SDS011;48759;52.544;13.418;2023-11-18T07:27:49;15.63;;;10.13;;
62693;SDS011;48759;52.544;13.418;2023-11-18T07:30:16;11.63;;;8.47;;
62693;SDS011;48759;52.544;13.418;2023-11-18T07:32:43;18.27;;;10.23;;
62693;SDS011;48759;52.544;13.418;2023-11-18T07:35:11;15.67;;;9.20;;
62693;SDS011;48759;52.544;13.418;2023-11-18T07:37:38;13.10;;;9.37;;
62693;SDS011;48759;52.544;13.418;2023-11-18T07:40:05;14.77;;;9.37;;
62693;SDS011;48759;52.544;13.418;2023-11-18T07:42:36;13.80;;;10.00;;
62693;SDS011;48759;52.544;13.418;2023-11-18T07:45:03;14.30;;;9.90;;
62693;SDS011;48759;52.544;13.418;2023-11-18T07:47:42;16.90;;;9.90;;
62693;SDS011;48759;52.544;13.418;2023-11-18T07:50:09;15.27;;;9.00;;
62693;SDS011;48759;52.544;13.418;2023-11-18T07:52:39;16.97;;;10.27;;
62693;SDS011;48759;52.544;13.418;2023-11-18T07:55:06;13.47;;;10.00;;
62693;SDS011;48759;52.544;13.418;2023-11-18T07:57:34;16.17;;;9.80;;
62693;SDS011;48759;52.544;13.418;2023-11-18T08:00:03;16.37;;;10.10;;
62693;SDS011;48759;52.544;13.418;2023-11-18T08:02:34;11.40;;;9.27;;
62693;SDS011;48759;52.544;13.418;2023-11-18T08:05:00;11.27;;;7.90;;
62693;SDS011;48759;52.544;13.418;2023-11-18T08:07:29;11.23;;;8.30;;
62693;SDS011;48759;52.544;13.418;2023-11-18T08:09:59;16.37;;;9.87;;
62693;SDS011;48759;52.544;13.418;2023-11-18T08:12:25;14.43;;;9.23;;
62693;SDS011;48759;52.544;13.418;2023-11-18T08:14:52;15.87;;;8.70;;
62693;SDS011;48759;52.544;13.418;2023-11-18T08:17:19;18.93;;;9.43;;
62693;SDS011;48759;52.544;13.418;2023-11-18T08:19:46;13.30;;;9.60;;
62693;SDS011;48759;52.544;13.418;2023-11-18T08:22:13;16.03;;;10.10;;
62693;SDS011;48759;52.544;13.418;2023-11-18T08:24:43;10.30;;;7.90;;
62693;SDS011;48759;52.544;13.418;2023-11-18T08:27:11;15.93;;;7.30;;
62693;SDS011;48759;52.544;13.418;2023-11-18T08:29:38;11.30;;;8.60;;
62693;SDS011;48759;52.544;13.418;2023-11-18T08:32:05;16.17;;;8.87;;
62693;SDS011;48759;52.544;13.418;2023-11-18T08:34:34;9.70;;;7.70;;
62693;SDS011;48759;52.544;13.418;2023-11-18T08:37:02;9.33;;;6.70;;
62693;SDS011;48759;52.544;13.418;2023-11-18T08:39:29;14.13;;;6.80;;
62693;SDS011;48759;52.544;13.418;2023-11-18T08:41:57;11.13;;;8.00;;
62693;SDS011;48759;52.544;13.418;2023-11-18T08:44:25;9.00;;;6.40;;
62693;SDS011;48759;52.544;13.418;2023-11-18T08:46:53;11.53;;;7.40;;
62693;SDS011;48759;52.544;13.418;2023-11-18T08:49:20;13.53;;;8.27;;
62693;SDS011;48759;52.544;13.418;2023-11-18T08:51:47;10.87;;;8.03;;
62693;SDS011;48759;52.544;13.418;2023-11-18T08:54:15;12.20;;;7.37;;
62693;SDS011;48759;52.544;13.418;2023-11-18T08:56:50;8.67;;;7.30;;
62693;SDS011;48759;52.544;13.418;2023-11-18T08:59:18;9.30;;;7.43;;
62693;SDS011;48759;52.544;13.418;2023-11-18T09:01:51;10.90;;;7.87;;
62693;SDS011;48759;52.544;13.418;2023-11-18T09:04:21;10.03;;;7.10;;
62693;SDS011;48759;52.544;13.418;2023-11-18T09:06:48;10.70;;;7.17;;
62693;SDS011;48759;52.544;13.418;2023-11-18T09:09:17;9.33;;;7.33;;
62693;SDS011;48759;52.544;13.418;2023-11-18T09:11:51;7.97;;;6.60;;
62693;SDS011;48759;52.544;13.418;2023-11-18T09:14:19;9.60;;;7.20;;
62693;SDS011;48759;52.544;13.418;2023-11-18T09:16:45;13.10;;;7.53;;
62693;SDS011;48759;52.544;13.418;2023-11-18T09:19:13;11.40;;;7.57;;
62693;SDS011;48759;52.544;13.418;2023-11-18T09:21:42;12.50;;;7.60;;
62693;SDS011;48759;52.544;13.418;2023-11-18T09:24:09;13.50;;;8.03;;
62693;SDS011;48759;52.544;13.418;2023-11-18T09:26:38;10.30;;;8.00;;
62693;SDS011;48759;52.544;13.418;2023-11-18T09:29:05;10.43;;;8.20;;
62693;SDS011;48759;52.544;13.418;2023-11-18T09:31:33;10.97;;;7.87;;
62693;SDS011;48759;52.544;13.418;2023-11-18T09:34:01;12.30;;;8.57;;
62693;SDS011;48759;52.544;13.418;2023-11-18T09:36:32;8.60;;;7.37;;
62693;SDS011;48759;52.544;13.418;2023-11-18T09:39:01;11.80;;;8.17;;
62693;SDS011;48759;52.544;13.418;2023-11-18T09:41:28;7.20;;;6.17;;
62693;SDS011;48759;52.544;13.418;2023-11-18T09:43:56;11.33;;;7.73;;
62693;SDS011;48759;52.544;13.418;2023-11-18T09:46:27;9.10;;;7.30;;
62693;SDS011;48759;52.544;13.418;2023-11-18T09:49:00;8.07;;;6.77;;
62693;SDS011;48759;52.544;13.418;2023-11-18T09:51:41;9.40;;;7.23;;
62693;SDS011;48759;52.544;13.418;2023-11-18T09:54:12;11.07;;;6.70;;
62693;SDS011;48759;52.544;13.418;2023-11-18T09:56:51;6.30;;;5.70;;
62693;SDS011;48759;52.544;13.418;2023-11-18T09:59:23;7.00;;;6.30;;
62693;SDS011;48759;52.544;13.418;2023-11-18T10:01:59;9.07;;;7.20;;
62693;SDS011;48759;52.544;13.418;2023-11-18T10:04:30;6.67;;;5.63;;
62693;SDS011;48759;52.544;13.418;2023-11-18T10:06:58;6.57;;;5.50;;
62693;SDS011;48759;52.544;13.418;2023-11-18T10:09:27;6.90;;;5.10;;
62693;SDS011;48759;52.544;13.418;2023-11-18T10:12:02;6.30;;;5.20;;
62693;SDS011;48759;52.544;13.418;2023-11-18T10:14:31;7.33;;;6.40;;
62693;SDS011;48759;52.544;13.418;2023-11-18T10:16:58;7.73;;;6.20;;
62693;SDS011;48759;52.544;13.418;2023-11-18T10:22:20;8.20;;;5.80;;
62693;SDS011;48759;52.544;13.418;2023-11-18T10:24:48;8.33;;;6.27;;
62693;SDS011;48759;52.544;13.418;2023-11-18T10:27:19;7.87;;;6.40;;
62693;SDS011;48759;52.544;13.418;2023-11-18T10:29:47;12.30;;;7.27;;
62693;SDS011;48759;52.544;13.418;2023-11-18T10:32:15;11.97;;;7.70;;
62693;SDS011;48759;52.544;13.418;2023-11-18T10:34:46;9.00;;;6.73;;
62693;SDS011;48759;52.544;13.418;2023-11-18T10:37:14;6.57;;;5.97;;
62693;SDS011;48759;52.544;13.418;2023-11-18T10:39:43;7.53;;;6.77;;
62693;SDS011;48759;52.544;13.418;2023-11-18T10:42:13;8.73;;;6.73;;
62693;SDS011;48759;52.544;13.418;2023-11-18T10:44:56;10.00;;;7.00;;
62693;SDS011;48759;52.544;13.418;2023-11-18T10:47:24;8.80;;;7.63;;
62693;SDS011;48759;52.544;13.418;2023-11-18T10:49:52;7.50;;;6.50;;
62693;SDS011;48759;52.544;13.418;2023-11-18T10:52:21;9.33;;;6.90;;
62693;SDS011;48759;52.544;13.418;2023-11-18T10:54:53;7.67;;;5.93;;
62693;SDS011;48759;52.544;13.418;2023-11-18T10:57:21;8.03;;;6.00;;
62693;SDS011;48759;52.544;13.418;2023-11-18T11:00:00;6.43;;;5.70;;
62693;SDS011;48759;52.544;13.418;2023-11-18T11:02:38;7.13;;;5.90;;
62693;SDS011;48759;52.544;13.418;2023-11-18T11:05:06;6.27;;;5.67;;
62693;SDS011;48759;52.544;13.418;2023-11-18T11:07:33;7.90;;;6.13;;
62693;SDS011;48759;52.544;13.418;2023-11-18T11:10:04;6.70;;;5.80;;
62693;SDS011;48759;52.544;13.418;2023-11-18T11:12:33;6.97;;;5.40;;
62693;SDS011;48759;52.544;13.418;2023-11-18T11:15:17;8.13;;;5.90;;
62693;SDS011;48759;52.544;13.418;2023-11-18T11:17:48;7.10;;;6.00;;
62693;SDS011;48759;52.544;13.418;2023-11-18T11:20:21;7.93;;;6.50;;
62693;SDS011;48759;52.544;13.418;2023-11-18T11:22:55;7.40;;;6.50;;
62693;SDS011;48759;52.544;13.418;2023-11-18T11:25:35;6.67;;;5.50;;
62693;SDS011;48759;52.544;13.418;2023-11-18T11:28:11;7.87;;;5.77;;
62693;SDS011;48759;52.544;13.418;2023-11-18T11:30:42;7.80;;;6.40;;
62693;SDS011;48759;52.544;13.418;2023-11-18T11:33:14;9.73;;;6.47;;
62693;SDS011;48759;52.544;13.418;2023-11-18T11:35:55;8.27;;;6.70;;
62693;SDS011;48759;52.544;13.418;2023-11-18T11:38:23;8.70;;;6.77;;
62693;SDS011;48759;52.544;13.418;2023-11-18T11:40:53;12.17;;;8.10;;
62693;SDS011;48759;52.544;13.418;2023-11-18T11:43:21;11.03;;;8.23;;
62693;SDS011;48759;52.544;13.418;2023-11-18T11:45:50;8.00;;;6.53;;
62693;SDS011;48759;52.544;13.418;2023-11-18T11:48:19;12.33;;;7.07;;
62693;SDS011;48759;52.544;13.418;2023-11-18T11:51:00;8.70;;;7.00;;
62693;SDS011;48759;52.544;13.418;2023-11-18T11:53:39;9.70;;;7.47;;
62693;SDS011;48759;52.544;13.418;2023-11-18T11:56:12;11.77;;;9.13;;
62693;SDS011;48759;52.544;13.418;2023-11-18T11:58:46;15.00;;;10.53;;
62693;SDS011;48759;52.544;13.418;2023-11-18T12:01:21;14.30;;;9.70;;
62693;SDS011;48759;52.544;13.418;2023-11-18T12:03:56;15.60;;;10.13;;
62693;SDS011;48759;52.544;13.418;2023-11-18T12:06:23;11.87;;;9.67;;
62693;SDS011;48759;52.544;13.418;2023-11-18T12:08:51;12.67;;;9.07;;
62693;SDS011;48759;52.544;13.418;2023-11-18T12:11:20;15.10;;;8.53;;
62693;SDS011;48759;52.544;13.418;2023-11-18T12:14:00;9.57;;;7.70;;
62693;SDS011;48759;52.544;13.418;2023-11-18T12:19:33;11.00;;;8.60;;
62693;SDS011;48759;52.544;13.418;2023-11-18T12:22:09;9.77;;;8.10;;
62693;SDS011;48759;52.544;13.418;2023-11-18T12:24:43;16.97;;;12.50;;
62693;SDS011;48759;52.544;13.418;2023-11-18T12:27:13;9.33;;;7.80;;
62693;SDS011;48759;52.544;13.418;2023-11-18T12:29:43;9.13;;;7.17;;
62693;SDS011;48759;52.544;13.418;2023-11-18T12:32:10;9.53;;;6.87;;
62693;SDS011;48759;52.544;13.418;2023-11-18T12:34:50;10.17;;;7.10;;
62693;SDS011;48759;52.544;13.418;2023-11-18T12:37:41;8.87;;;7.00;;
62693;SDS011;48759;52.544;13.418;2023-11-18T12:43:27;10.17;;;7.50;;
62693;SDS011;48759;52.544;13.418;2023-11-18T12:46:32;13.77;;;8.67;;
62693;SDS011;48759;52.544;13.418;2023-11-18T12:49:18;11.27;;;7.27;;
62693;SDS011;48759;52.544;13.418;2023-11-18T12:51:48;12.37;;;7.90;;
62693;SDS011;48759;52.544;13.418;2023-11-18T12:54:15;12.47;;;8.00;;
62693;SDS011;48759;52.544;13.418;2023-11-18T12:56:44;8.90;;;7.03;;
62693;SDS011;48759;52.544;13.418;2023-11-18T12:59:15;7.50;;;6.70;;
62693;SDS011;48759;52.544;13.418;2023-11-18T13:01:44;7.60;;;6.30;;
62693;SDS011;48759;52.544;13.418;2023-11-18T13:04:17;9.83;;;7.40;;
62693;SDS011;48759;52.544;13.418;2023-11-18T13:06:45;6.63;;;5.90;;
62693;SDS011;48759;52.544;13.418;2023-11-18T13:09:13;8.77;;;6.27;;
62693;SDS011;48759;52.544;13.418;2023-11-18T13:11:50;6.50;;;4.80;;
62693;SDS011;48759;52.544;13.418;2023-11-18T13:14:21;7.90;;;5.70;;
62693;SDS011;48759;52.544;13.418;2023-11-18T13:16:50;7.73;;;5.90;;
62693;SDS011;48759;52.544;13.418;2023-11-18T13:19:23;7.50;;;6.50;;
62693;SDS011;48759;52.544;13.418;2023-11-18T13:21:51;8.63;;;6.90;;
62693;SDS011;48759;52.544;13.418;2023-11-18T13:24:17;11.83;;;8.30;;
62693;SDS011;48759;52.544;13.418;2023-11-18T13:26:44;15.13;;;8.43;;
62693;SDS011;48759;52.544;13.418;2023-11-18T13:29:11;11.13;;;8.37;;
62693;SDS011;48759;52.544;13.418;2023-11-18T13:31:40;9.90;;;7.70;;
62693;SDS011;48759;52.544;13.418;2023-11-18T13:34:08;13.43;;;9.00;;
62693;SDS011;48759;52.544;13.418;2023-11-18T13:36:35;13.77;;;9.90;;
62693;SDS011;48759;52.544;13.418;2023-11-18T13:39:03;16.07;;;9.73;;
62693;SDS011;48759;52.544;13.418;2023-11-18T13:41:32;13.63;;;9.70;;
62693;SDS011;48759;52.544;13.418;2023-11-18T13:43:59;9.63;;;7.40;;
62693;SDS011;48759;52.544;13.418;2023-11-18T13:46:26;8.37;;;7.00;;
62693;SDS011;48759;52.544;13.418;2023-11-18T13:48:53;7.83;;;7.00;;
62693;SDS011;48759;52.544;13.418;2023-11-18T13:51:20;11.13;;;6.77;;
62693;SDS011;48759;52.544;13.418;2023-11-18T13:53:48;7.77;;;6.70;;
62693;SDS011;48759;52.544;13.418;2023-11-18T13:56:18;8.83;;;6.60;;
62693;SDS011;48759;52.544;13.418;2023-11-18T13:58:45;5.67;;;4.70;;
62693;SDS011;48759;52.544;13.418;2023-11-18T14:01:13;7.23;;;6.07;;
62693;SDS011;48759;52.544;13.418;2023-11-18T14:03:40;9.03;;;7.03;;
62693;SDS011;48759;52.544;13.418;2023-11-18T14:06:10;9.43;;;6.80;;
62693;SDS011;48759;52.544;13.418;2023-11-18T14:08:37;10.20;;;7.23;;
62693;SDS011;48759;52.544;13.418;2023-11-18T14:11:04;9.10;;;7.10;;
62693;SDS011;48759;52.544;13.418;2023-11-18T14:13:34;8.20;;;5.70;;
62693;SDS011;48759;52.544;13.418;2023-11-18T14:16:00;8.13;;;6.07;;
62693;SDS011;48759;52.544;13.418;2023-11-18T14:18:27;8.00;;;6.10;;
62693;SDS011;48759;52.544;13.418;2023-11-18T14:20:54;5.53;;;4.63;;
62693;SDS011;48759;52.544;13.418;2023-11-18T14:23:22;8.10;;;5.90;;
62693;SDS011;48759;52.544;13.418;2023-11-18T14:25:50;8.73;;;5.50;;
62693;SDS011;48759;52.544;13.418;2023-11-18T14:28:16;12.10;;;8.17;;
62693;SDS011;48759;52.544;13.418;2023-11-18T14:30:44;11.47;;;7.70;;
62693;SDS011;48759;52.544;13.418;2023-11-18T14:33:10;10.13;;;6.80;;
62693;SDS011;48759;52.544;13.418;2023-11-18T14:35:37;7.80;;;6.70;;
62693;SDS011;48759;52.544;13.418;2023-11-18T14:38:05;13.83;;;7.07;;
62693;SDS011;48759;52.544;13.418;2023-11-18T14:40:34;7.93;;;6.33;;
62693;SDS011;48759;52.544;13.418;2023-11-18T14:43:01;9.93;;;6.57;;
62693;SDS011;48759;52.544;13.418;2023-11-18T14:45:29;9.37;;;7.20;;
62693;SDS011;48759;52.544;13.418;2023-11-18T14:47:57;12.13;;;6.47;;